Time;durP1;ratioP1;P1;durP2;ratioP2;P2;SDS_P1;SDS_P2;PMS_P1;PMS_P2;Temp;Humidity;BMP_temperature;BMP_pressure;BME280_temperature;BME280_humidity;BME280_pressure;Samples;Min_cycle;Max_cycle;Signal;HPM_P1;HPM_P2
2021/05/26 00:01:59;;;;;;;2.77;0.90;;;17.50;42.00;;;;;;4982102;28;20191;-51
2021/05/26 00:04:25;;;;;;;1.93;1.20;;;17.40;42.10;;;;;;4984392;28;20500;-48
2021/05/26 00:06:50;;;;;;;2.23;1.00;;;17.20;42.50;;;;;;4986967;28;20572;-47
2021/05/26 00:09:16;;;;;;;3.10;1.30;;;17.20;42.80;;;;;;4987761;28;20187;-49
2021/05/26 00:11:41;;;;;;;3.83;1.43;;;17.00;43.10;;;;;;4986038;28;20205;-49
2021/05/26 00:14:07;;;;;;;1.50;1.30;;;17.00;43.50;;;;;;4983282;28;20273;-49
2021/05/26 00:16:33;;;;;;;2.97;1.40;;;17.10;43.40;;;;;;4983675;28;20199;-46
2021/05/26 00:18:59;;;;;;;4.40;1.57;;;17.20;43.50;;;;;;4982947;28;20552;-47
2021/05/26 00:21:25;;;;;;;2.03;1.03;;;17.00;43.60;;;;;;4986273;28;20202;-46
2021/05/26 00:23:51;;;;;;;1.20;1.10;;;16.90;44.10;;;;;;4983150;28;20199;-46
2021/05/26 00:26:17;;;;;;;1.80;1.20;;;16.90;44.20;;;;;;4984688;28;20865;-47
2021/05/26 00:28:44;;;;;;;1.97;1.20;;;16.90;44.50;;;;;;4983879;28;20206;-50
2021/05/26 00:31:10;;;;;;;1.70;1.00;;;16.90;44.70;;;;;;4986062;28;20237;-45
2021/05/26 00:33:36;;;;;;;2.10;1.20;;;16.90;44.70;;;;;;4983207;28;20464;-48
2021/05/26 00:36:03;;;;;;;2.90;2.40;;;16.50;45.20;;;;;;4981687;28;20458;-47
2021/05/26 00:38:28;;;;;;;2.60;1.20;;;16.20;45.60;;;;;;4985601;28;20269;-47
2021/05/26 00:40:54;;;;;;;2.40;0.90;;;16.10;46.10;;;;;;4985044;28;20441;-46
2021/05/26 00:43:20;;;;;;;1.93;1.07;;;16.10;46.30;;;;;;4982563;28;20201;-49
2021/05/26 00:45:46;;;;;;;2.70;1.40;;;16.20;46.30;;;;;;4984999;28;20222;-49
2021/05/26 00:48:12;;;;;;;1.50;0.80;;;16.20;46.20;;;;;;4983298;28;20205;-46
2021/05/26 00:50:39;;;;;;;1.33;0.80;;;16.30;46.30;;;;;;4982739;28;20438;-50
2021/05/26 00:53:07;;;;;;;1.60;0.93;;;16.20;46.40;;;;;;4983323;28;20464;-49
2021/05/26 00:55:35;;;;;;;2.10;1.00;;;16.30;46.40;;;;;;4984713;28;20442;-49
2021/05/26 00:58:01;;;;;;;2.83;1.27;;;16.30;46.00;;;;;;4983904;28;20469;-49
2021/05/26 01:00:28;;;;;;;1.20;1.00;;;16.30;46.20;;;;;;4984817;28;20448;-47
2021/05/26 01:02:54;;;;;;;3.90;1.30;;;16.30;46.20;;;;;;4981482;28;20450;-47
2021/05/26 01:05:22;;;;;;;4.20;1.17;;;16.40;46.10;;;;;;4985017;28;20555;-49
2021/05/26 01:07:48;;;;;;;2.50;1.37;;;16.40;46.10;;;;;;4983804;28;20199;-45
2021/05/26 01:10:17;;;;;;;1.40;0.97;;;16.60;45.90;;;;;;4986407;28;20434;-49
2021/05/26 01:12:44;;;;;;;1.73;1.17;;;16.70;45.60;;;;;;4984787;28;20460;-49
2021/05/26 01:15:12;;;;;;;2.10;1.00;;;16.70;46.70;;;;;;4986404;28;20568;-51
2021/05/26 01:17:38;;;;;;;3.90;1.20;;;16.80;46.00;;;;;;4988114;28;20532;-49
2021/05/26 01:20:09;;;;;;;1.83;1.10;;;17.00;46.40;;;;;;4987126;28;20536;-49
2021/05/26 01:22:35;;;;;;;2.10;0.90;;;16.80;45.70;;;;;;4988188;28;20486;-46
2021/05/26 01:25:01;;;;;;;1.50;1.20;;;16.80;46.20;;;;;;4986869;28;20477;-49
2021/05/26 01:27:27;;;;;;;3.60;1.40;;;16.70;46.70;;;;;;4987227;28;20484;-49
2021/05/26 01:29:55;;;;;;;2.13;1.03;;;16.70;48.20;;;;;;4991952;28;20437;-46
2021/05/26 01:32:21;;;;;;;2.43;1.03;;;16.60;48.60;;;;;;4989648;28;20198;-49
2021/05/26 01:34:46;;;;;;;2.30;1.40;;;16.30;49.00;;;;;;4981546;28;20472;-47
2021/05/26 01:37:12;;;;;;;2.50;1.23;;;16.30;49.80;;;;;;4985930;28;20760;-46
2021/05/26 01:39:38;;;;;;;1.90;1.20;;;16.20;49.70;;;;;;4986694;28;20210;-46
2021/05/26 01:42:03;;;;;;;3.00;0.90;;;16.00;50.50;;;;;;4987735;28;20194;-50
2021/05/26 01:44:34;;;;;;;2.63;0.90;;;16.10;50.10;;;;;;4983976;28;20199;-51
2021/05/26 01:46:59;;;;;;;3.43;1.40;;;16.10;50.20;;;;;;4985951;28;20234;-48
2021/05/26 01:49:25;;;;;;;3.40;1.00;;;16.10;50.10;;;;;;4985481;28;20445;-47
2021/05/26 01:51:50;;;;;;;2.63;1.40;;;15.90;50.30;;;;;;4985323;28;20283;-47
2021/05/26 01:54:16;;;;;;;2.33;1.10;;;15.90;51.00;;;;;;4988897;28;20285;-47
2021/05/26 01:56:42;;;;;;;5.60;1.47;;;16.00;51.00;;;;;;4984030;28;20202;-46
2021/05/26 01:59:07;;;;;;;2.70;1.20;;;15.70;51.40;;;;;;4985287;28;20677;-46
2021/05/26 02:01:33;;;;;;;2.57;0.90;;;15.70;51.70;;;;;;4986623;28;20199;-48
2021/05/26 02:03:59;;;;;;;3.43;1.47;;;15.60;51.40;;;;;;4986085;28;20662;-47
2021/05/26 02:06:25;;;;;;;1.27;1.10;;;15.60;51.30;;;;;;4986362;28;20495;-47
2021/05/26 02:08:54;;;;;;;3.60;1.00;;;15.60;51.70;;;;;;4984956;28;20663;-48
2021/05/26 02:14:06;;;;;;;1.27;0.87;;;15.60;51.80;;;;;;4988412;28;20831;-48
2021/05/26 02:16:33;;;;;;;1.63;0.90;;;15.50;51.60;;;;;;4986294;28;20795;-49
2021/05/26 02:18:59;;;;;;;1.13;1.00;;;15.60;51.60;;;;;;4987465;28;20442;-46
2021/05/26 02:21:25;;;;;;;3.50;1.37;;;15.70;51.20;;;;;;4987612;28;20441;-48
2021/05/26 02:23:51;;;;;;;3.80;1.40;;;15.80;51.00;;;;;;4984426;28;20446;-49
2021/05/26 02:26:17;;;;;;;2.50;1.17;;;15.80;50.90;;;;;;4985664;28;20547;-50
2021/05/26 02:28:42;;;;;;;2.93;1.00;;;15.90;50.80;;;;;;4987240;28;20210;-50
2021/05/26 02:31:08;;;;;;;2.00;1.20;;;16.10;50.80;;;;;;4986198;28;20201;-49
2021/05/26 02:33:35;;;;;;;5.40;1.03;;;16.10;51.10;;;;;;4987185;28;20195;-50
2021/05/26 02:36:02;;;;;;;3.67;1.20;;;16.10;51.20;;;;;;4984842;28;20532;-49
2021/05/26 02:38:28;;;;;;;2.60;1.33;;;16.10;52.30;;;;;;4985144;28;20478;-48
2021/05/26 02:40:53;;;;;;;2.80;1.00;;;15.90;51.90;;;;;;4986906;28;20434;-50
2021/05/26 02:43:19;;;;;;;5.40;1.13;;;16.00;51.80;;;;;;4985591;28;20194;-49
2021/05/26 02:45:45;;;;;;;3.43;0.90;;;16.20;51.70;;;;;;4986225;28;20223;-49
2021/05/26 02:48:10;;;;;;;1.77;1.10;;;16.00;51.70;;;;;;4985915;28;20438;-46
2021/05/26 02:50:36;;;;;;;1.17;0.67;;;15.60;52.40;;;;;;4986323;28;20203;-49
2021/05/26 02:53:02;;;;;;;1.20;0.97;;;15.70;52.50;;;;;;4989266;28;20650;-48
2021/05/26 02:55:28;;;;;;;3.70;1.30;;;15.80;52.50;;;;;;4993142;28;20222;-48
2021/05/26 02:57:54;;;;;;;3.70;1.10;;;15.80;52.30;;;;;;4984960;28;20482;-47
2021/05/26 03:00:21;;;;;;;2.60;1.17;;;15.80;52.30;;;;;;4985684;28;20892;-46
2021/05/26 03:02:47;;;;;;;2.90;1.07;;;15.90;52.20;;;;;;4988059;28;20222;-47
2021/05/26 03:05:14;;;;;;;3.30;1.17;;;16.10;52.10;;;;;;4985533;28;20569;-49
2021/05/26 03:07:40;;;;;;;2.33;1.17;;;16.00;52.10;;;;;;4984865;28;20254;-45
2021/05/26 03:10:08;;;;;;;1.70;1.10;;;15.80;52.50;;;;;;4983827;28;20453;-48
2021/05/26 03:12:34;;;;;;;1.73;1.03;;;15.80;52.90;;;;;;4986009;28;20450;-45
2021/05/26 03:14:59;;;;;;;2.00;1.40;;;15.70;53.10;;;;;;4984407;28;20450;-46
2021/05/26 03:17:28;;;;;;;1.77;0.97;;;15.60;53.60;;;;;;4988576;28;20937;-49
2021/05/26 03:19:55;;;;;;;3.80;1.10;;;15.40;53.90;;;;;;4984075;28;20269;-47
2021/05/26 03:22:23;;;;;;;2.23;1.00;;;15.40;54.10;;;;;;4987673;28;20464;-46
2021/05/26 03:24:49;;;;;;;1.17;0.90;;;15.40;54.10;;;;;;4983550;28;20438;-50
2021/05/26 03:27:16;;;;;;;1.43;1.13;;;15.20;54.40;;;;;;4986901;28;20500;-45
2021/05/26 03:29:41;;;;;;;1.57;1.17;;;15.30;54.30;;;;;;4984012;28;20201;-45
2021/05/26 03:32:07;;;;;;;3.80;1.10;;;15.20;54.20;;;;;;4990795;28;20521;-47
2021/05/26 03:34:33;;;;;;;1.70;0.90;;;15.20;54.40;;;;;;4984806;28;20245;-46
2021/05/26 03:36:59;;;;;;;1.60;1.10;;;15.30;54.30;;;;;;4983836;28;20677;-47
2021/05/26 03:39:24;;;;;;;6.10;1.20;;;15.60;54.10;;;;;;4984036;28;20201;-45
2021/05/26 03:41:50;;;;;;;2.03;1.00;;;15.60;54.00;;;;;;4992464;28;20446;-49
2021/05/26 03:44:16;;;;;;;4.10;1.03;;;15.70;53.90;;;;;;4991217;28;20566;-46
2021/05/26 03:46:41;;;;;;;2.10;1.13;;;15.70;54.00;;;;;;4984630;28;20246;-46
2021/05/26 03:49:07;;;;;;;2.57;1.20;;;15.70;54.30;;;;;;4984501;28;20202;-46
2021/05/26 03:51:34;;;;;;;1.57;0.80;;;15.60;54.60;;;;;;4985217;28;20220;-48
2021/05/26 03:54:00;;;;;;;1.83;1.00;;;15.60;54.40;;;;;;4985294;28;20269;-46
2021/05/26 03:56:25;;;;;;;1.93;0.90;;;15.60;54.10;;;;;;4984855;28;20441;-45
2021/05/26 03:58:51;;;;;;;2.10;1.10;;;15.80;54.20;;;;;;4985233;28;20198;-46
2021/05/26 04:01:17;;;;;;;3.30;1.53;;;15.90;53.80;;;;;;4985096;28;21465;-46
2021/05/26 04:03:42;;;;;;;1.80;1.10;;;15.80;53.70;;;;;;4987092;28;20190;-45
2021/05/26 04:06:09;;;;;;;1.70;0.87;;;15.90;53.80;;;;;;4982677;28;20240;-48
2021/05/26 04:08:35;;;;;;;2.57;1.50;;;16.00;53.60;;;;;;4984697;28;20195;-45
2021/05/26 04:11:01;;;;;;;3.40;1.40;;;16.00;53.50;;;;;;4983599;28;20448;-45
2021/05/26 04:13:26;;;;;;;2.40;1.20;;;15.90;53.50;;;;;;4987851;28;20226;-46
2021/05/26 04:15:52;;;;;;;1.33;1.23;;;16.00;53.50;;;;;;4985920;28;20187;-48
2021/05/26 04:18:17;;;;;;;2.37;1.20;;;15.90;53.70;;;;;;4983239;28;20206;-45
2021/05/26 04:20:43;;;;;;;3.93;1.13;;;15.80;53.80;;;;;;4983895;28;20194;-45
2021/05/26 04:23:08;;;;;;;2.37;1.07;;;15.80;53.90;;;;;;4988448;28;20217;-45
2021/05/26 04:25:34;;;;;;;3.47;1.10;;;15.80;54.10;;;;;;4989801;28;20237;-47
2021/05/26 04:28:00;;;;;;;2.50;1.27;;;15.90;54.20;;;;;;4987306;28;20582;-49
2021/05/26 04:30:25;;;;;;;3.30;1.23;;;15.90;54.30;;;;;;4983171;28;20581;-47
2021/05/26 04:32:51;;;;;;;1.27;1.17;;;16.00;54.30;;;;;;4983160;28;20190;-45
2021/05/26 04:35:18;;;;;;;5.17;1.20;;;15.90;54.30;;;;;;4982917;28;20340;-45
2021/05/26 04:37:43;;;;;;;3.17;1.07;;;15.60;54.50;;;;;;4984048;28;20249;-44
2021/05/26 04:40:09;;;;;;;2.07;0.97;;;15.70;54.70;;;;;;4981545;28;20564;-47
2021/05/26 04:42:35;;;;;;;3.10;1.63;;;15.70;54.60;;;;;;4985581;28;20203;-45
2021/05/26 04:45:01;;;;;;;1.27;1.10;;;15.70;54.80;;;;;;4983585;28;20438;-46
2021/05/26 04:47:26;;;;;;;3.13;1.27;;;15.70;54.70;;;;;;4983777;28;20282;-45
2021/05/26 04:49:52;;;;;;;1.83;1.30;;;15.60;54.90;;;;;;4983722;28;20202;-47
2021/05/26 04:52:17;;;;;;;2.30;0.93;;;15.70;54.90;;;;;;4988615;28;20226;-46
2021/05/26 04:54:43;;;;;;;2.77;1.20;;;15.80;55.10;;;;;;4988143;28;20601;-46
2021/05/26 04:57:09;;;;;;;1.40;1.30;;;15.70;55.40;;;;;;4985490;28;20195;-45
2021/05/26 04:59:34;;;;;;;1.13;1.03;;;15.70;55.40;;;;;;4982347;28;20191;-45
2021/05/26 05:02:01;;;;;;;1.73;1.40;;;15.70;55.60;;;;;;4981815;28;20221;-46
2021/05/26 05:04:27;;;;;;;2.50;1.27;;;15.60;55.80;;;;;;4982472;28;20205;-46
2021/05/26 05:06:53;;;;;;;3.70;1.43;;;15.50;55.80;;;;;;4985269;28;20494;-45
2021/05/26 05:09:19;;;;;;;1.40;1.10;;;15.50;56.00;;;;;;4981240;28;20194;-47
2021/05/26 05:11:45;;;;;;;4.20;1.60;;;15.50;56.20;;;;;;4982741;28;20448;-46
2021/05/26 05:14:11;;;;;;;1.87;1.17;;;15.50;56.30;;;;;;4980379;28;20257;-46
2021/05/26 05:16:36;;;;;;;2.50;1.53;;;15.50;56.50;;;;;;4982952;28;20434;-46
2021/05/26 05:19:02;;;;;;;2.70;1.00;;;15.50;56.50;;;;;;4978293;28;20559;-46
2021/05/26 05:21:28;;;;;;;2.00;1.30;;;15.70;56.30;;;;;;4982930;28;20197;-47
2021/05/26 05:23:53;;;;;;;2.97;1.90;;;15.70;56.50;;;;;;4983984;28;20249;-47
2021/05/26 05:26:19;;;;;;;3.30;1.47;;;15.70;56.50;;;;;;4982019;28;20289;-49
2021/05/26 05:28:45;;;;;;;3.13;1.73;;;15.80;56.70;;;;;;4984106;28;20238;-49
2021/05/26 05:31:10;;;;;;;5.83;1.33;;;15.80;56.60;;;;;;4982676;28;20191;-50
2021/05/26 05:33:36;;;;;;;2.73;1.83;;;15.80;56.80;;;;;;4979323;28;20638;-49
2021/05/26 05:36:02;;;;;;;2.17;1.30;;;15.70;56.90;;;;;;4980505;28;20728;-50
2021/05/26 05:38:27;;;;;;;7.43;2.10;;;15.60;57.10;;;;;;4981641;28;20357;-50
2021/05/26 05:40:53;;;;;;;3.97;1.37;;;15.70;57.40;;;;;;4986853;28;20521;-50
2021/05/26 05:43:19;;;;;;;1.93;1.30;;;15.80;57.30;;;;;;4985217;28;20211;-50
2021/05/26 05:45:44;;;;;;;4.10;1.93;;;16.00;57.20;;;;;;4986889;28;20222;-50
2021/05/26 05:48:10;;;;;;;1.73;1.40;;;16.10;57.20;;;;;;4977438;28;20223;-48
2021/05/26 05:50:37;;;;;;;1.43;1.30;;;16.10;57.10;;;;;;4986558;28;20281;-49
2021/05/26 05:53:04;;;;;;;3.50;1.30;;;16.00;56.90;;;;;;4988600;28;20433;-49
2021/05/26 05:55:30;;;;;;;2.47;1.30;;;16.10;57.20;;;;;;4991035;28;20433;-49
2021/05/26 05:58:00;;;;;;;2.03;1.30;;;16.10;57.10;;;;;;4991192;28;20445;-46
2021/05/26 06:00:26;;;;;;;3.37;1.27;;;16.00;57.10;;;;;;4991792;28;20193;-50
2021/05/26 06:02:52;;;;;;;2.20;1.60;;;16.00;57.40;;;;;;4993168;28;20449;-49
2021/05/26 06:05:18;;;;;;;3.43;1.30;;;15.90;57.50;;;;;;4993825;28;20341;-50
2021/05/26 06:07:43;;;;;;;3.90;1.90;;;15.90;57.60;;;;;;4995002;28;20210;-50
2021/05/26 06:10:10;;;;;;;2.53;1.27;;;15.90;57.90;;;;;;4992687;28;20600;-51
2021/05/26 06:12:35;;;;;;;2.07;1.70;;;15.90;58.10;;;;;;4992883;28;20205;-49
2021/05/26 06:15:02;;;;;;;5.27;1.30;;;15.90;58.40;;;;;;4993362;28;20441;-50
2021/05/26 06:17:27;;;;;;;5.67;1.27;;;16.00;58.30;;;;;;4995113;28;20209;-49
2021/05/26 06:19:53;;;;;;;2.73;1.00;;;16.10;58.10;;;;;;4994331;28;20433;-50
2021/05/26 06:22:18;;;;;;;3.77;2.10;;;16.10;57.70;;;;;;4994509;28;20198;-50
2021/05/26 06:24:44;;;;;;;2.10;1.30;;;16.20;57.90;;;;;;4993477;28;20221;-49
2021/05/26 06:27:10;;;;;;;4.00;1.30;;;16.30;57.90;;;;;;4994575;28;20233;-47
2021/05/26 06:29:35;;;;;;;4.53;1.27;;;16.40;57.90;;;;;;4992774;28;20190;-51
2021/05/26 06:32:01;;;;;;;2.40;1.50;;;16.40;57.70;;;;;;4993792;28;20217;-50
2021/05/26 06:34:26;;;;;;;3.53;2.00;;;16.40;57.90;;;;;;4993757;28;20190;-50
2021/05/26 06:36:52;;;;;;;5.77;1.37;;;16.40;58.20;;;;;;4993961;28;20206;-50
2021/05/26 06:39:18;;;;;;;2.40;1.20;;;16.30;58.30;;;;;;4992046;28;20209;-49
2021/05/26 06:41:43;;;;;;;4.30;1.37;;;16.40;58.20;;;;;;4993251;28;20245;-50
2021/05/26 06:44:09;;;;;;;1.53;0.80;;;16.30;58.10;;;;;;4992863;28;20608;-49
2021/05/26 06:46:34;;;;;;;2.33;1.20;;;16.40;58.10;;;;;;4994422;28;20227;-50
2021/05/26 06:49:00;;;;;;;5.17;1.80;;;16.40;58.00;;;;;;4993604;28;20686;-50
2021/05/26 06:51:26;;;;;;;2.93;1.43;;;16.50;57.90;;;;;;4987032;28;20628;-50
2021/05/26 06:53:52;;;;;;;3.93;1.40;;;16.50;57.90;;;;;;4992008;28;20203;-49
2021/05/26 06:56:18;;;;;;;3.50;2.00;;;16.30;58.10;;;;;;4992492;28;20312;-51
2021/05/26 06:58:44;;;;;;;7.87;2.63;;;16.30;58.30;;;;;;4992993;28;20940;-50
2021/05/26 07:01:09;;;;;;;3.07;1.97;;;16.40;58.20;;;;;;4993654;28;20218;-49
2021/05/26 07:03:35;;;;;;;3.37;3.07;;;16.40;58.20;;;;;;4992368;28;20211;-50
2021/05/26 07:06:00;;;;;;;2.70;1.17;;;16.30;57.80;;;;;;4991834;28;20226;-48
2021/05/26 07:08:26;;;;;;;2.10;1.03;;;16.20;58.10;;;;;;4993631;28;20625;-49
2021/05/26 07:10:51;;;;;;;3.13;1.53;;;16.00;58.20;;;;;;4992573;28;20186;-50
2021/05/26 07:13:17;;;;;;;3.33;1.30;;;15.90;58.60;;;;;;4992603;28;20624;-47
2021/05/26 07:15:43;;;;;;;6.47;1.67;;;16.00;59.10;;;;;;4993431;28;20198;-50
2021/05/26 07:18:09;;;;;;;2.87;1.27;;;15.90;58.80;;;;;;4993782;28;20205;-51
2021/05/26 07:20:36;;;;;;;2.40;1.47;;;15.70;59.40;;;;;;4990977;28;20203;-50
2021/05/26 07:23:02;;;;;;;3.33;1.03;;;15.90;59.20;;;;;;4993380;28;20442;-49
2021/05/26 07:25:28;;;;;;;4.83;1.70;;;15.90;58.60;;;;;;4990905;28;20492;-50
2021/05/26 07:27:54;;;;;;;4.07;1.60;;;16.00;58.70;;;;;;4992551;28;20195;-50
2021/05/26 07:30:20;;;;;;;5.30;2.23;;;16.00;58.90;;;;;;4990081;28;20677;-50
2021/05/26 07:32:47;;;;;;;2.93;1.30;;;16.10;58.60;;;;;;4974155;28;20202;-50
2021/05/26 07:35:13;;;;;;;4.03;1.50;;;16.00;59.00;;;;;;4986880;28;20438;-50
2021/05/26 07:37:39;;;;;;;3.50;1.40;;;16.10;59.00;;;;;;4987178;28;21012;-49
2021/05/26 07:40:10;;;;;;;3.90;1.50;;;16.30;58.80;;;;;;4984464;28;20199;-49
2021/05/26 07:42:35;;;;;;;2.43;1.27;;;16.40;58.60;;;;;;4987247;28;20564;-49
2021/05/26 07:45:01;;;;;;;3.00;1.70;;;16.40;58.30;;;;;;4989719;28;20541;-49
2021/05/26 07:47:27;;;;;;;5.43;2.30;;;16.50;58.40;;;;;;4991915;28;20209;-49
2021/05/26 07:49:53;;;;;;;4.50;1.63;;;16.40;58.50;;;;;;4991600;28;20633;-46
2021/05/26 07:52:21;;;;;;;6.30;1.93;;;16.30;59.20;;;;;;4992272;28;20201;-49
2021/05/26 07:54:49;;;;;;;4.90;2.17;;;16.40;58.40;;;;;;4989538;28;20245;-48
2021/05/26 07:57:15;;;;;;;2.47;1.70;;;16.40;57.90;;;;;;4993047;28;20438;-50
2021/05/26 07:59:42;;;;;;;5.53;2.43;;;16.20;58.70;;;;;;4991844;28;21044;-50
2021/05/26 08:02:07;;;;;;;5.43;1.80;;;16.00;59.10;;;;;;4991186;28;20434;-49
2021/05/26 08:04:33;;;;;;;1.97;1.50;;;16.00;58.30;;;;;;4991766;28;20489;-49
2021/05/26 08:06:59;;;;;;;2.70;1.50;;;15.50;57.60;;;;;;4992083;28;20232;-51
2021/05/26 08:09:24;;;;;;;2.43;1.80;;;15.30;57.60;;;;;;4991780;28;20224;-50
2021/05/26 08:11:50;;;;;;;2.93;1.67;;;15.00;58.40;;;;;;4992172;28;20203;-51
2021/05/26 08:14:16;;;;;;;5.13;1.50;;;14.90;58.80;;;;;;4989935;28;20207;-51
2021/05/26 08:16:41;;;;;;;5.63;1.57;;;14.90;58.50;;;;;;4987361;28;20230;-51
2021/05/26 08:19:07;;;;;;;3.60;1.80;;;14.80;58.10;;;;;;4987192;28;20202;-52
2021/05/26 08:21:33;;;;;;;4.10;1.80;;;14.70;57.40;;;;;;4989621;28;20191;-50
2021/05/26 08:23:58;;;;;;;2.30;1.70;;;14.70;58.20;;;;;;4991165;28;20199;-51
2021/05/26 08:26:24;;;;;;;3.87;1.50;;;14.50;58.00;;;;;;4989321;28;20230;-51
2021/05/26 08:28:52;;;;;;;3.33;1.60;;;14.70;58.00;;;;;;4978087;28;20202;-51
2021/05/26 08:31:18;;;;;;;4.43;1.60;;;15.00;58.40;;;;;;4991447;28;20281;-49
2021/05/26 08:33:45;;;;;;;9.00;1.90;;;14.90;57.30;;;;;;4991234;28;20449;-48
2021/05/26 08:36:10;;;;;;;5.70;1.90;;;15.00;57.60;;;;;;4990543;28;20433;-51
2021/05/26 08:38:38;;;;;;;3.53;2.03;;;15.20;58.20;;;;;;4991690;28;20984;-51
2021/05/26 08:41:08;;;;;;;5.17;2.60;;;15.30;57.90;;;;;;4990777;28;20190;-50
2021/05/26 08:43:36;;;;;;;3.53;1.60;;;15.20;57.50;;;;;;4988798;28;20445;-51
2021/05/26 08:46:03;;;;;;;4.40;2.10;;;15.10;57.50;;;;;;4991370;28;20850;-50
2021/05/26 08:48:31;;;;;;;1.77;1.47;;;15.10;58.10;;;;;;4988641;28;20497;-51
2021/05/26 08:50:58;;;;;;;3.07;1.40;;;14.90;57.00;;;;;;4988039;28;20917;-52
2021/05/26 08:53:24;;;;;;;3.87;1.50;;;14.70;57.60;;;;;;4991574;28;20484;-50
2021/05/26 08:55:51;;;;;;;2.30;1.80;;;14.70;57.30;;;;;;5004555;28;20442;-50
2021/05/26 08:58:17;;;;;;;4.97;2.70;;;14.80;58.30;;;;;;4988511;28;20461;-51
2021/05/26 09:00:43;;;;;;;4.00;1.73;;;15.00;58.30;;;;;;4990202;28;20437;-52
2021/05/26 09:03:08;;;;;;;11.60;5.20;;;14.90;57.60;;;;;;4990213;28;21399;-50
2021/05/26 09:05:35;;;;;;;10.13;3.53;;;14.90;58.20;;;;;;4988510;28;20226;-49
2021/05/26 09:08:15;;;;;;;5.93;2.40;;;15.10;58.30;;;;;;4989152;28;20245;-52
2021/05/26 09:10:57;;;;;;;8.03;2.57;;;15.20;57.90;;;;;;4988674;28;20443;-47
2021/05/26 09:13:32;;;;;;;2.77;1.70;;;15.20;58.00;;;;;;4990022;28;20493;-49
2021/05/26 09:15:58;;;;;;;2.67;1.47;;;15.20;57.50;;;;;;4984205;28;20445;-51
2021/05/26 09:18:24;;;;;;;2.77;1.67;;;15.20;57.80;;;;;;4986984;28;20572;-51
2021/05/26 09:20:50;;;;;;;3.53;2.07;;;15.30;58.30;;;;;;4980096;28;20582;-47
2021/05/26 09:23:30;;;;;;;1.93;1.67;;;15.40;58.00;;;;;;4987902;28;20256;-48
2021/05/26 09:25:58;;;;;;;3.17;1.20;;;15.40;57.40;;;;;;4988530;28;20925;-50
2021/05/26 09:28:35;;;;;;;2.03;1.50;;;15.10;57.00;;;;;;4989984;28;20446;-47
2021/05/26 09:31:04;;;;;;;4.40;1.73;;;15.10;57.80;;;;;;4989454;28;20794;-47
2021/05/26 09:33:31;;;;;;;3.80;2.03;;;15.10;58.00;;;;;;4989083;28;20446;-48
2021/05/26 09:36:13;;;;;;;5.50;2.00;;;15.00;57.20;;;;;;4992590;28;20434;-47
2021/05/26 09:38:40;;;;;;;3.10;1.30;;;14.80;58.30;;;;;;4990809;28;20500;-46
2021/05/26 09:41:18;;;;;;;3.63;2.07;;;14.70;58.80;;;;;;4993378;28;20520;-48
2021/05/26 09:43:51;;;;;;;2.60;1.10;;;14.50;58.60;;;;;;4991034;28;20532;-48
2021/05/26 09:46:33;;;;;;;4.17;2.00;;;14.80;58.70;;;;;;4994031;28;20485;-50
2021/05/26 09:49:15;;;;;;;4.60;1.97;;;15.10;58.70;;;;;;4988495;28;20929;-48
2021/05/26 09:51:46;;;;;;;2.53;1.50;;;15.10;57.60;;;;;;4992579;28;20528;-46
2021/05/26 09:54:11;;;;;;;5.27;1.47;;;15.20;58.60;;;;;;4993034;28;20536;-47
2021/05/26 09:56:38;;;;;;;2.23;1.40;;;15.00;57.50;;;;;;4993602;28;21007;-47
2021/05/26 09:59:04;;;;;;;3.30;2.10;;;14.70;57.30;;;;;;4993976;28;20674;-48
2021/05/26 10:01:31;;;;;;;2.27;1.30;;;14.70;58.40;;;;;;4993141;28;20429;-47
2021/05/26 10:03:57;;;;;;;5.43;1.47;;;14.70;58.70;;;;;;4992590;28;20444;-50
2021/05/26 10:06:24;;;;;;;4.23;1.60;;;14.80;58.80;;;;;;4992638;28;20875;-46
2021/05/26 10:08:52;;;;;;;3.23;1.80;;;14.80;58.40;;;;;;4991678;28;20438;-47
2021/05/26 10:11:19;;;;;;;4.50;1.70;;;14.80;59.40;;;;;;4993794;28;20441;-46
2021/05/26 10:13:46;;;;;;;2.73;1.80;;;14.70;57.90;;;;;;4992663;28;20441;-49
2021/05/26 10:16:18;;;;;;;1.60;1.50;;;14.70;57.80;;;;;;4994283;28;20890;-46
2021/05/26 10:18:45;;;;;;;2.13;1.23;;;14.70;58.50;;;;;;4991116;28;20449;-49
2021/05/26 10:21:19;;;;;;;1.30;1.03;;;14.60;56.70;;;;;;4994266;28;20519;-48
2021/05/26 10:23:45;;;;;;;1.33;1.10;;;14.50;57.60;;;;;;4990666;28;20504;-49
2021/05/26 10:26:11;;;;;;;1.07;0.80;;;14.60;57.50;;;;;;4995147;28;20493;-48
2021/05/26 10:28:37;;;;;;;2.77;1.20;;;14.40;57.50;;;;;;4988922;28;20302;-46
2021/05/26 10:31:06;;;;;;;0.70;0.70;;;14.50;58.10;;;;;;4988263;28;20192;-46
2021/05/26 10:33:44;;;;;;;2.40;1.20;;;14.80;57.50;;;;;;4990846;28;20500;-49
2021/05/26 10:36:14;;;;;;;1.00;0.90;;;14.80;57.00;;;;;;4982133;28;20449;-46
2021/05/26 10:39:00;;;;;;;1.00;0.80;;;14.90;57.40;;;;;;4981045;28;20532;-48
2021/05/26 10:41:46;;;;;;;2.60;0.70;;;14.90;57.00;;;;;;4991877;28;20445;-46
2021/05/26 10:44:12;;;;;;;3.00;1.33;;;14.90;56.80;;;;;;4976165;28;20476;-47
2021/05/26 10:46:38;;;;;;;1.10;1.00;;;15.00;56.80;;;;;;4989694;28;20545;-47
2021/05/26 10:49:08;;;;;;;1.47;1.00;;;15.20;57.40;;;;;;4988640;28;20558;-47
2021/05/26 10:51:52;;;;;;;1.93;1.27;;;15.20;56.60;;;;;;4993232;28;20453;-50
2021/05/26 10:54:39;;;;;;;2.60;1.67;;;15.30;57.20;;;;;;4992697;28;20450;-46
2021/05/26 10:57:09;;;;;;;1.10;0.67;;;15.50;57.60;;;;;;4993371;28;20446;-46
2021/05/26 10:59:35;;;;;;;0.90;0.80;;;15.50;55.90;;;;;;4993238;28;20442;-47
2021/05/26 11:02:08;;;;;;;1.10;0.90;;;15.30;55.40;;;;;;4993020;28;20449;-47
2021/05/26 11:04:35;;;;;;;1.57;0.80;;;15.30;55.60;;;;;;4992087;28;20446;-46
2021/05/26 11:07:22;;;;;;;2.10;1.00;;;15.20;55.70;;;;;;4993374;28;20520;-46
2021/05/26 11:10:02;;;;;;;3.00;1.33;;;15.30;56.30;;;;;;4979992;28;20433;-48
2021/05/26 11:12:50;;;;;;;0.83;0.80;;;15.50;56.00;;;;;;4993395;28;20441;-47
2021/05/26 11:15:43;;;;;;;1.67;0.80;;;15.50;55.10;;;;;;4989408;28;20952;-47
2021/05/26 11:18:12;;;;;;;0.87;0.87;;;15.60;54.90;;;;;;4990398;28;20520;-47
2021/05/26 11:20:37;;;;;;;1.00;1.00;;;15.60;55.70;;;;;;4993652;28;20533;-47
2021/05/26 11:23:14;;;;;;;1.90;0.90;;;15.60;54.90;;;;;;4991785;28;20524;-47
2021/05/26 11:25:53;;;;;;;1.00;0.90;;;15.30;55.40;;;;;;4992734;28;20214;-47
2021/05/26 11:28:33;;;;;;;1.03;0.93;;;15.50;55.70;;;;;;4991843;28;20603;-46
2021/05/26 11:31:07;;;;;;;1.60;1.20;;;15.60;56.10;;;;;;4992310;28;20960;-49
2021/05/26 11:33:33;;;;;;;3.63;1.10;;;15.90;56.00;;;;;;4999792;28;20437;-46
2021/05/26 11:36:04;;;;;;;3.93;1.47;;;15.50;55.40;;;;;;4991976;28;20438;-46
2021/05/26 11:38:31;;;;;;;1.40;1.07;;;15.40;56.10;;;;;;4992017;28;20604;-49
2021/05/26 11:40:57;;;;;;;2.20;1.07;;;15.70;56.70;;;;;;4992732;28;20442;-46
2021/05/26 11:43:23;;;;;;;1.20;1.10;;;15.60;56.40;;;;;;4988383;28;20446;-47
2021/05/26 11:46:06;;;;;;;2.03;1.10;;;15.80;56.60;;;;;;4989643;28;20556;-50
2021/05/26 11:48:31;;;;;;;1.70;1.00;;;16.10;56.20;;;;;;4988244;28;20945;-46
2021/05/26 11:50:57;;;;;;;1.03;1.03;;;16.10;55.80;;;;;;4992249;28;20445;-46
2021/05/26 11:53:23;;;;;;;1.50;1.10;;;16.00;55.10;;;;;;4988044;28;20195;-45
2021/05/26 11:55:51;;;;;;;1.40;0.97;;;16.10;55.50;;;;;;4988918;28;20844;-49
2021/05/26 11:58:40;;;;;;;0.90;0.90;;;15.80;54.80;;;;;;4989659;28;20438;-47
2021/05/26 12:01:13;;;;;;;2.43;1.87;;;15.80;55.40;;;;;;4981438;28;20795;-50
2021/05/26 12:03:39;;;;;;;2.77;1.37;;;15.90;55.40;;;;;;4984791;28;20443;-49
2021/05/26 12:06:05;;;;;;;2.20;1.43;;;16.00;55.60;;;;;;4990114;28;20992;-49
2021/05/26 12:08:37;;;;;;;1.47;1.20;;;16.10;55.40;;;;;;4990684;28;20194;-46
2021/05/26 12:11:04;;;;;;;1.20;1.03;;;16.10;55.00;;;;;;4987634;28;20442;-47
2021/05/26 12:13:41;;;;;;;1.30;1.17;;;16.30;54.60;;;;;;4988883;28;20442;-47
2021/05/26 12:16:09;;;;;;;1.23;1.10;;;16.40;54.60;;;;;;4990016;28;20449;-48
2021/05/26 12:18:46;;;;;;;2.90;1.30;;;16.40;54.30;;;;;;4986977;28;20441;-45
2021/05/26 12:21:15;;;;;;;2.87;1.20;;;16.20;54.10;;;;;;4990680;28;20960;-45
2021/05/26 12:23:47;;;;;;;2.30;1.10;;;16.10;54.20;;;;;;4984214;28;21072;-48
2021/05/26 12:26:32;;;;;;;2.60;1.30;;;16.30;54.20;;;;;;4990898;28;20496;-47
2021/05/26 12:29:08;;;;;;;2.50;1.40;;;16.40;54.00;;;;;;4988158;28;20477;-46
2021/05/26 12:31:35;;;;;;;3.27;1.30;;;16.30;53.60;;;;;;4991219;28;20773;-49
2021/05/26 12:34:02;;;;;;;0.97;0.87;;;16.30;53.80;;;;;;4990875;28;20449;-49
2021/05/26 12:36:30;;;;;;;1.20;1.10;;;16.30;53.60;;;;;;4982420;28;20442;-48
2021/05/26 12:39:03;;;;;;;1.10;0.97;;;16.50;54.00;;;;;;4989053;28;21006;-46
2021/05/26 12:41:33;;;;;;;1.10;0.90;;;16.60;53.70;;;;;;4991855;28;20450;-47
2021/05/26 12:44:07;;;;;;;1.57;0.90;;;16.50;53.70;;;;;;4990991;28;20450;-48
2021/05/26 12:46:53;;;;;;;1.27;1.10;;;16.50;53.20;;;;;;4991797;28;20494;-49
2021/05/26 12:49:28;;;;;;;1.87;0.70;;;16.70;53.90;;;;;;4989886;28;21015;-48
2021/05/26 12:51:58;;;;;;;1.20;1.00;;;16.70;53.20;;;;;;4991824;28;20450;-45
2021/05/26 12:54:24;;;;;;;2.00;0.87;;;16.70;53.20;;;;;;4983601;28;20437;-45